createdAt,value
2019-04-11T00:00:03.493Z,8.6
2019-04-11T00:15:02.527Z,8.4
2019-04-11T00:30:03.927Z,8.2
2019-04-11T00:45:03.322Z,8.2
2019-04-11T01:00:03.062Z,8.1
2019-04-11T01:15:03.130Z,8.1
2019-04-11T01:30:03.986Z,8
2019-04-11T01:45:03.208Z,7.9
2019-04-11T02:00:03.906Z,7.9
2019-04-11T02:15:03.890Z,7.8
2019-04-11T02:30:03.908Z,7.7
2019-04-11T02:45:16.228Z,7.6
2019-04-11T03:00:04.371Z,7.6
2019-04-11T03:15:19.762Z,7.4
2019-04-11T03:30:04.180Z,7.2
2019-04-11T03:45:25.220Z,7.2
2019-04-11T04:00:04.143Z,7.2
2019-04-11T04:15:04.362Z,7.1
2019-04-11T04:30:05.171Z,7.1
2019-04-11T04:45:04.802Z,7.1
2019-04-11T05:00:04.937Z,7.1
2019-04-11T05:15:03.649Z,7.1
2019-04-11T05:30:02.907Z,7
2019-04-11T05:45:03.389Z,7.1
2019-04-11T06:00:03.546Z,7.2
2019-04-11T06:15:03.919Z,7.2
2019-04-11T06:30:03.360Z,7.4
2019-04-11T06:45:03.992Z,7.6
2019-04-11T07:00:03.111Z,7.9
2019-04-11T07:15:02.793Z,8.1
2019-04-11T07:30:03.298Z,8.2
2019-04-11T07:45:02.897Z,8.6
2019-04-11T08:00:03.735Z,9.4
2019-04-11T08:15:02.728Z,9.8
2019-04-11T08:30:02.812Z,10
2019-04-11T08:45:04.044Z,10.7
2019-04-11T09:00:04.065Z,11.4
2019-04-11T09:15:04.330Z,11.1
2019-04-11T09:30:04.417Z,11.8
2019-04-11T09:45:03.527Z,12.2
2019-04-11T10:00:03.742Z,12.4
2019-04-11T10:15:03.187Z,13.6
2019-04-11T10:30:02.819Z,12.9
2019-04-11T10:45:03.100Z,11.8
2019-04-11T11:00:03.387Z,11.2
2019-04-11T11:15:03.157Z,10.9
2019-04-11T11:30:04.376Z,10.9
2019-04-11T11:45:04.119Z,10.8
2019-04-11T12:00:02.948Z,10.4
2019-04-11T12:15:03.433Z,10.9
2019-04-11T12:30:05.776Z,11.9
2019-04-11T12:45:03.049Z,11.2
2019-04-11T13:00:03.374Z,11.8
2019-04-11T13:15:02.652Z,11.4
2019-04-11T13:30:03.046Z,11.8
2019-04-11T13:45:03.344Z,11.3
2019-04-11T14:00:02.666Z,11.2
2019-04-11T14:15:05.902Z,11.3
2019-04-11T14:30:02.644Z,11.3
2019-04-11T14:45:05.618Z,10.9
2019-04-11T15:00:03.211Z,10.9
2019-04-11T15:15:02.728Z,10.5
2019-04-11T15:30:03.137Z,10.4
2019-04-11T15:45:03.459Z,10.1
2019-04-11T16:00:02.741Z,9.9
2019-04-11T16:15:03.122Z,9.8
2019-04-11T16:30:02.501Z,9.9
2019-04-11T16:45:02.478Z,9.9
2019-04-11T17:00:02.756Z,9.7
2019-04-11T17:15:02.647Z,9.6
2019-04-11T17:30:03.220Z,9.4
2019-04-11T17:45:02.738Z,9.2
2019-04-11T18:00:03.198Z,9.1
2019-04-11T18:15:02.999Z,9
2019-04-11T18:30:03.120Z,8.9
2019-04-11T18:45:03.460Z,8.8
2019-04-11T19:00:07.081Z,8.6
2019-04-11T19:15:02.549Z,8.5
2019-04-11T19:30:02.992Z,8.3
2019-04-11T19:45:03.306Z,8.2
2019-04-11T20:00:02.829Z,8.1
2019-04-11T20:15:05.073Z,8
2019-04-11T20:30:03.383Z,7.8
2019-04-11T20:45:02.610Z,7.6
2019-04-11T21:00:02.868Z,7.4
2019-04-11T21:15:03.301Z,7.2
2019-04-11T21:30:02.617Z,6.9
2019-04-11T21:45:05.900Z,6.8
2019-04-11T22:00:03.451Z,6.7
2019-04-11T22:15:02.688Z,6.6
2019-04-11T22:30:03.122Z,6.4
2019-04-11T22:45:03.392Z,6.1
2019-04-11T23:00:03.439Z,5.8
2019-04-11T23:15:02.729Z,5.4
2019-04-11T23:30:03.118Z,5.1
2019-04-11T23:45:02.409Z,4.6
